This is the latest recevied weather packets stored in our database for station/object HA2SKA-1. If no packets are shown the sender has not sent any weather packets the latest 10 day(s).
| Time | Temp. | Humidity | Pressure | Rain* | Wind** | Luminosity | Snow |
|---|---|---|---|---|---|---|---|
| 1777752062 | 12.22° C | 59% | 1022.1 hPa | - | - | - | - |
| 1777751162 | 12.78° C | 56% | 1022 hPa | - | - | - | - |
| 1777750262 | 13.33° C | 52% | 1022 hPa | - | - | - | - |
| 1777749361 | 14.44° C | 49% | 1021.9 hPa | - | - | - | - |
| 1777748461 | 15.56° C | 47% | 1021.9 hPa | - | - | - | - |
| 1777747561 | 15° C | 48% | 1022 hPa | - | - | - | - |
| 1777746661 | 16.11° C | 47% | 1021.8 hPa | - | - | - | - |
| 1777745761 | 15.56° C | 48% | 1021.6 hPa | - | - | - | - |
| 1777744861 | 18.33° C | 41% | 1021.6 hPa | - | - | - | - |
| 1777743961 | 18.89° C | 38% | 1021.5 hPa | - | - | - | - |
| 1777743061 | 22.22° C | 32% | 1021.3 hPa | - | - | - | - |
| 1777742161 | 22.22° C | 28% | 1021.3 hPa | - | - | - | - |
| 1777741261 | 22.78° C | 27% | 1021.3 hPa | - | - | - | - |
| 1777740361 | 23.33° C | 27% | 1021.4 hPa | - | - | - | - |
| 1777739460 | 23.89° C | 25% | 1021.4 hPa | - | - | - | - |
| 1777738560 | 23.89° C | 25% | 1021.4 hPa | - | - | - | - |
| 1777737660 | 24.44° C | 24% | 1021.6 hPa | - | - | - | - |
| 1777736760 | 24.44° C | 25% | 1021.8 hPa | - | - | - | - |
| 1777735860 | 23.89° C | 25% | 1022 hPa | - | - | - | - |
| 1777734960 | 25° C | 24% | 1022 hPa | - | - | - | - |
| 1777734060 | 24.44° C | 24% | 1022.1 hPa | - | - | - | - |
| 1777733160 | 25.56° C | 23% | 1022.3 hPa | - | - | - | - |
| 1777732260 | 24.44° C | 25% | 1022.6 hPa | - | - | - | - |
| 1777731360 | 25.56° C | 24% | 1022.5 hPa | - | - | - | - |
| 1777730460 | 25° C | 24% | 1022.7 hPa | - | - | - | - |
* Rain since midnight (hover to see other rain measurements)
** Current wind speed in m/s (hover to see current wind gust speed)